Time;durP1;ratioP1;P1;durP2;ratioP2;P2;SDS_P1;SDS_P2;PMS_P1;PMS_P2;Temp;Humidity;BMP_temperature;BMP_pressure;BME280_temperature;BME280_humidity;BME280_pressure;Samples;Min_cycle;Max_cycle;Signal;HPM_P1;HPM_P2
2022/06/09 00:00:01;;;;;;;9.60;8.52;;;;;;;;;;5013926;28;20185;-65
2022/06/09 00:02:30;;;;;;;10.02;8.10;;;;;;;;;;5013811;28;20178;-65
2022/06/09 00:04:56;;;;;;;9.80;8.80;;;;;;;;;;5013548;28;20223;-65
2022/06/09 00:07:22;;;;;;;11.43;8.68;;;;;;;;;;5012495;28;20196;-65
2022/06/09 00:09:50;;;;;;;10.15;8.90;;;;;;;;;;5013509;28;20525;-65
2022/06/09 00:12:15;;;;;;;10.55;9.00;;;;;;;;;;5013416;28;20586;-65
2022/06/09 00:14:42;;;;;;;10.32;8.88;;;;;;;;;;5015185;28;20189;-65
2022/06/09 00:17:08;;;;;;;9.90;8.80;;;;;;;;;;5017317;28;20166;-65
2022/06/09 00:19:34;;;;;;;9.52;8.52;;;;;;;;;;5017446;28;20161;-65
2022/06/09 00:22:00;;;;;;;9.60;8.50;;;;;;;;;;5017296;28;20170;-65
2022/06/09 00:24:26;;;;;;;10.27;8.90;;;;;;;;;;5017520;28;20170;-64
2022/06/09 00:26:52;;;;;;;10.07;8.98;;;;;;;;;;5017508;28;20178;-65
2022/06/09 00:29:18;;;;;;;11.45;9.60;;;;;;;;;;5017298;28;20244;-64
2022/06/09 00:31:44;;;;;;;11.52;9.57;;;;;;;;;;5017172;28;20170;-65
2022/06/09 00:34:10;;;;;;;12.25;9.38;;;;;;;;;;5017116;28;20285;-64
2022/06/09 00:36:37;;;;;;;10.90;9.80;;;;;;;;;;5017302;28;20252;-65
2022/06/09 00:39:03;;;;;;;10.40;9.43;;;;;;;;;;5017255;28;20162;-65
2022/06/09 00:41:29;;;;;;;11.43;10.23;;;;;;;;;;5017219;28;20491;-65
2022/06/09 00:44:13;;;;;;;10.23;9.15;;;;;;;;;;5017335;28;20257;-65
2022/06/09 00:46:40;;;;;;;10.90;9.82;;;;;;;;;;5016904;28;20778;-65
2022/06/09 00:49:10;;;;;;;10.90;9.80;;;;;;;;;;5017107;28;20174;-65
2022/06/09 00:51:39;;;;;;;12.85;10.75;;;;;;;;;;5017188;28;20165;-65
2022/06/09 00:54:05;;;;;;;12.00;10.05;;;;;;;;;;5017208;28;20617;-65
2022/06/09 00:56:33;;;;;;;12.10;10.07;;;;;;;;;;5016973;28;20244;-65
2022/06/09 00:58:59;;;;;;;10.88;9.77;;;;;;;;;;5016880;28;20187;-64
2022/06/09 01:01:25;;;;;;;15.02;10.68;;;;;;;;;;5016678;28;20166;-64
2022/06/09 01:03:51;;;;;;;12.23;9.82;;;;;;;;;;5016772;28;20181;-65
2022/06/09 01:06:20;;;;;;;11.82;10.23;;;;;;;;;;5016790;28;20474;-65
2022/06/09 01:08:48;;;;;;;11.43;10.00;;;;;;;;;;5016653;28;20192;-65
2022/06/09 01:11:14;;;;;;;14.93;10.73;;;;;;;;;;5016485;28;20171;-65
2022/06/09 01:13:41;;;;;;;11.98;10.50;;;;;;;;;;5016276;28;20657;-65
2022/06/09 01:16:14;;;;;;;15.00;11.73;;;;;;;;;;5016768;28;20221;-65
2022/06/09 01:18:52;;;;;;;14.82;11.70;;;;;;;;;;5016540;28;20162;-65
2022/06/09 01:21:31;;;;;;;14.30;11.80;;;;;;;;;;5016331;28;20216;-65
2022/06/09 01:24:15;;;;;;;13.43;11.98;;;;;;;;;;5016230;28;20155;-65
2022/06/09 01:26:41;;;;;;;15.48;12.88;;;;;;;;;;5015750;28;20248;-65
2022/06/09 01:29:16;;;;;;;15.45;12.48;;;;;;;;;;5016102;28;20321;-65
2022/06/09 01:31:45;;;;;;;15.27;12.35;;;;;;;;;;5016084;28;20170;-65
2022/06/09 01:34:16;;;;;;;15.05;12.95;;;;;;;;;;5015963;28;20193;-65
2022/06/09 01:36:42;;;;;;;13.48;12.07;;;;;;;;;;5015969;28;20637;-65
2022/06/09 01:39:08;;;;;;;12.73;11.13;;;;;;;;;;5016165;28;20167;-65
2022/06/09 01:41:35;;;;;;;14.35;12.38;;;;;;;;;;5016160;28;20171;-65
2022/06/09 01:44:01;;;;;;;14.70;12.57;;;;;;;;;;5016041;28;20212;-65
2022/06/09 01:46:32;;;;;;;16.65;13.32;;;;;;;;;;5016090;28;20514;-65
2022/06/09 01:49:02;;;;;;;16.17;13.07;;;;;;;;;;5016071;28;20193;-65
2022/06/09 01:51:29;;;;;;;16.98;13.48;;;;;;;;;;5016066;28;20165;-65
2022/06/09 01:54:14;;;;;;;19.38;14.60;;;;;;;;;;5015390;28;20206;-65
2022/06/09 01:56:46;;;;;;;15.40;12.98;;;;;;;;;;5015932;28;20253;-65
2022/06/09 01:59:12;;;;;;;16.33;13.80;;;;;;;;;;5015693;28;20166;-65
2022/06/09 02:01:43;;;;;;;15.73;13.35;;;;;;;;;;5015489;28;20168;-65
2022/06/09 02:04:14;;;;;;;15.07;12.70;;;;;;;;;;5015611;28;20166;-65
2022/06/09 02:06:41;;;;;;;16.75;12.95;;;;;;;;;;5015827;28;20159;-65
2022/06/09 02:09:07;;;;;;;14.30;12.57;;;;;;;;;;5015739;28;20188;-65
2022/06/09 02:11:33;;;;;;;15.55;12.82;;;;;;;;;;5015327;28;20610;-65
2022/06/09 02:13:59;;;;;;;16.98;12.13;;;;;;;;;;5015260;28;20197;-65
2022/06/09 02:16:25;;;;;;;13.20;11.55;;;;;;;;;;5015376;28;20169;-65
2022/06/09 02:18:53;;;;;;;14.73;12.70;;;;;;;;;;5015128;28;20170;-65
2022/06/09 02:21:19;;;;;;;14.55;12.65;;;;;;;;;;5015125;28;20216;-65
2022/06/09 02:23:47;;;;;;;15.55;12.18;;;;;;;;;;5015078;28;20213;-65
2022/06/09 02:26:13;;;;;;;13.73;11.82;;;;;;;;;;5015098;28;20204;-65
2022/06/09 02:28:39;;;;;;;14.25;11.85;;;;;;;;;;5014965;28;20194;-65
2022/06/09 02:31:05;;;;;;;15.63;12.15;;;;;;;;;;5015057;28;20171;-65
2022/06/09 02:33:31;;;;;;;14.60;13.02;;;;;;;;;;5015091;28;20193;-65
2022/06/09 02:35:57;;;;;;;14.63;12.75;;;;;;;;;;5014797;28;20220;-65
2022/06/09 02:38:23;;;;;;;14.63;12.43;;;;;;;;;;5013986;28;20223;-65
2022/06/09 02:40:50;;;;;;;13.98;12.05;;;;;;;;;;5014758;28;20167;-65
2022/06/09 02:43:16;;;;;;;18.40;13.88;;;;;;;;;;5014560;28;20170;-65
2022/06/09 02:45:43;;;;;;;19.30;14.05;;;;;;;;;;5015258;28;20178;-65
2022/06/09 02:48:09;;;;;;;17.95;14.10;;;;;;;;;;5014473;28;20669;-65
2022/06/09 02:50:36;;;;;;;16.27;12.93;;;;;;;;;;5014561;28;20166;-65
2022/06/09 02:53:03;;;;;;;16.58;13.05;;;;;;;;;;5014531;28;20229;-65
2022/06/09 02:55:29;;;;;;;17.35;12.85;;;;;;;;;;5014448;28;20565;-65
2022/06/09 02:57:55;;;;;;;15.15;12.68;;;;;;;;;;5014467;28;20166;-64
2022/06/09 03:00:21;;;;;;;15.90;12.35;;;;;;;;;;5014403;28;20170;-65
2022/06/09 03:02:52;;;;;;;15.23;12.35;;;;;;;;;;5014414;28;20606;-65
2022/06/09 03:05:17;;;;;;;17.30;13.23;;;;;;;;;;5013895;28;20229;-65
2022/06/09 03:07:43;;;;;;;17.48;12.98;;;;;;;;;;5014271;28;20606;-65
2022/06/09 03:10:09;;;;;;;16.98;12.77;;;;;;;;;;5014236;28;20167;-65
2022/06/09 03:12:35;;;;;;;16.95;13.75;;;;;;;;;;5014225;28;20198;-65
2022/06/09 03:15:02;;;;;;;15.55;12.93;;;;;;;;;;5014443;28;20158;-65
2022/06/09 03:17:28;;;;;;;15.77;13.65;;;;;;;;;;5014528;28;20557;-65
2022/06/09 03:19:54;;;;;;;16.48;13.68;;;;;;;;;;5014582;28;20511;-65
2022/06/09 03:22:20;;;;;;;16.45;13.50;;;;;;;;;;5014887;28;20167;-64
2022/06/09 03:24:45;;;;;;;16.92;13.85;;;;;;;;;;5014485;28;20174;-65
2022/06/09 03:27:11;;;;;;;16.95;13.90;;;;;;;;;;5014424;28;20162;-65
2022/06/09 03:29:37;;;;;;;14.90;12.50;;;;;;;;;;5014299;28;20166;-64
2022/06/09 03:32:03;;;;;;;15.88;13.77;;;;;;;;;;5014255;28;20170;-65
2022/06/09 03:34:29;;;;;;;15.82;13.00;;;;;;;;;;5014033;28;20195;-64
2022/06/09 03:36:56;;;;;;;14.38;12.88;;;;;;;;;;5014125;28;20232;-64
2022/06/09 03:39:22;;;;;;;15.65;13.80;;;;;;;;;;5014358;28;20171;-64
2022/06/09 03:41:48;;;;;;;16.55;13.75;;;;;;;;;;5014079;28;20166;-64
2022/06/09 03:44:14;;;;;;;15.05;12.80;;;;;;;;;;5013907;28;20162;-65
2022/06/09 03:46:40;;;;;;;15.45;13.35;;;;;;;;;;5013735;28;20192;-65
2022/06/09 03:49:06;;;;;;;16.10;13.68;;;;;;;;;;5013861;28;20175;-65
2022/06/09 03:51:33;;;;;;;15.52;13.52;;;;;;;;;;5013843;28;20170;-65
2022/06/09 03:53:59;;;;;;;14.75;13.25;;;;;;;;;;5013439;28;20209;-65
2022/06/09 03:56:25;;;;;;;17.45;13.27;;;;;;;;;;5045677;28;20552;-65
2022/06/09 03:58:51;;;;;;;17.02;14.18;;;;;;;;;;5013681;28;20170;-65
2022/06/09 04:01:18;;;;;;;15.00;13.05;;;;;;;;;;5013610;28;20249;-65
2022/06/09 04:03:47;;;;;;;16.67;13.20;;;;;;;;;;5013933;28;20174;-65
2022/06/09 04:06:23;;;;;;;15.88;13.70;;;;;;;;;;5014018;28;20174;-65
2022/06/09 04:08:50;;;;;;;15.65;13.93;;;;;;;;;;5013771;28;20609;-65
2022/06/09 04:11:16;;;;;;;16.02;13.15;;;;;;;;;;5013342;28;20503;-65
2022/06/09 04:13:43;;;;;;;15.13;12.90;;;;;;;;;;5013450;28;20578;-65
2022/06/09 04:16:16;;;;;;;15.30;13.40;;;;;;;;;;5013506;28;20170;-64
2022/06/09 04:18:42;;;;;;;13.90;12.40;;;;;;;;;;5013826;28;20150;-65
2022/06/09 04:21:08;;;;;;;14.90;12.40;;;;;;;;;;5013845;28;20585;-65
2022/06/09 04:23:34;;;;;;;15.02;13.00;;;;;;;;;;5013524;28;20190;-65
2022/06/09 04:26:00;;;;;;;14.20;12.70;;;;;;;;;;5013441;28;20628;-65
2022/06/09 04:28:26;;;;;;;13.85;12.05;;;;;;;;;;5013427;28;20181;-65
2022/06/09 04:30:52;;;;;;;15.00;12.13;;;;;;;;;;5013360;28;20166;-65
2022/06/09 04:33:18;;;;;;;13.93;12.43;;;;;;;;;;5013426;28;20255;-65
2022/06/09 04:35:44;;;;;;;14.57;12.75;;;;;;;;;;5013703;28;20256;-65
2022/06/09 04:38:11;;;;;;;15.30;12.02;;;;;;;;;;5013355;28;20176;-65
2022/06/09 04:40:39;;;;;;;13.63;12.10;;;;;;;;;;5014402;28;20170;-65
2022/06/09 04:43:06;;;;;;;13.32;11.77;;;;;;;;;;5018093;28;20185;-65
2022/06/09 04:45:32;;;;;;;13.02;11.50;;;;;;;;;;5013184;28;20509;-65
2022/06/09 04:47:58;;;;;;;15.38;12.13;;;;;;;;;;5012310;28;20173;-65
2022/06/09 04:52:50;;;;;;;13.10;11.50;;;;;;;;;;5517128;22;20199;31
2022/06/09 04:55:16;;;;;;;13.65;11.00;;;;;;;;;;5228204;22;20274;-65
2022/06/09 04:57:42;;;;;;;13.88;12.15;;;;;;;;;;5072685;22;20225;-65
2022/06/09 05:00:10;;;;;;;14.40;12.18;;;;;;;;;;5075697;23;20209;-65
2022/06/09 05:02:36;;;;;;;13.70;11.77;;;;;;;;;;5051415;23;20212;-65
2022/06/09 05:05:02;;;;;;;12.15;10.88;;;;;;;;;;5036586;28;20161;-65
2022/06/09 05:07:28;;;;;;;12.90;11.48;;;;;;;;;;5036720;28;20191;-65
2022/06/09 05:09:54;;;;;;;13.07;11.25;;;;;;;;;;5043565;23;20295;-65
2022/06/09 05:12:20;;;;;;;13.00;11.02;;;;;;;;;;5043656;23;20216;-65
2022/06/09 05:14:46;;;;;;;12.18;10.90;;;;;;;;;;5036243;28;20165;-65
2022/06/09 05:17:12;;;;;;;12.43;10.77;;;;;;;;;;5036293;28;20611;-65
2022/06/09 05:19:38;;;;;;;12.20;10.95;;;;;;;;;;5036270;28;20243;-65
2022/06/09 05:22:04;;;;;;;11.10;10.00;;;;;;;;;;5036532;28;20157;-65
2022/06/09 05:24:30;;;;;;;10.43;9.20;;;;;;;;;;5036191;28;20627;-65
2022/06/09 05:26:57;;;;;;;10.70;9.55;;;;;;;;;;5050448;23;20228;-66
2022/06/09 05:29:23;;;;;;;10.30;8.60;;;;;;;;;;5041279;23;20213;-65
2022/06/09 05:31:49;;;;;;;9.20;8.27;;;;;;;;;;5032163;23;20273;-66
2022/06/09 05:34:14;;;;;;;9.05;8.07;;;;;;;;;;5025151;23;20537;-65
2022/06/09 05:36:40;;;;;;;8.88;7.97;;;;;;;;;;5044020;23;20300;-66
2022/06/09 05:44:51;;;;;;;9.65;7.25;;;;;;;;;;4994795;28;20197;-65
2022/06/09 05:47:21;;;;;;;8.45;6.90;;;;;;;;;;5018727;23;20212;-66
2022/06/09 05:49:47;;;;;;;8.38;6.18;;;;;;;;;;5035670;22;20578;-65
2022/06/09 05:52:14;;;;;;;6.68;6.07;;;;;;;;;;5032470;23;20267;-66
2022/06/09 05:54:40;;;;;;;6.93;6.22;;;;;;;;;;5050003;22;20224;-66
2022/06/09 05:57:06;;;;;;;6.40;5.90;;;;;;;;;;5035400;28;20234;-66
2022/06/09 05:59:32;;;;;;;9.00;6.10;;;;;;;;;;5050622;22;20205;-66
2022/06/09 06:01:58;;;;;;;6.68;5.97;;;;;;;;;;5035987;28;20489;-66
2022/06/09 06:04:24;;;;;;;11.00;6.00;;;;;;;;;;5051593;22;20560;-66
2022/06/09 06:06:50;;;;;;;7.57;5.63;;;;;;;;;;5044334;23;20209;-66
2022/06/09 06:09:17;;;;;;;6.22;5.22;;;;;;;;;;5043972;22;20205;-66
2022/06/09 06:11:44;;;;;;;5.97;5.30;;;;;;;;;;5048231;22;20227;-66
2022/06/09 06:14:10;;;;;;;6.63;5.95;;;;;;;;;;5042087;28;20196;-66
2022/06/09 06:16:37;;;;;;;7.25;5.20;;;;;;;;;;5056564;22;20221;-66
2022/06/09 06:19:04;;;;;;;5.88;5.20;;;;;;;;;;5040593;28;20203;-67
2022/06/09 06:21:30;;;;;;;7.00;5.43;;;;;;;;;;5046311;28;20177;-68
2022/06/09 06:23:56;;;;;;;7.45;5.30;;;;;;;;;;5060523;22;20212;-68
2022/06/09 06:26:22;;;;;;;6.25;5.25;;;;;;;;;;5044278;28;20197;-67
2022/06/09 06:28:48;;;;;;;4.88;4.30;;;;;;;;;;5044617;28;20557;-67
2022/06/09 06:31:14;;;;;;;4.82;4.32;;;;;;;;;;5047576;28;20237;-68
2022/06/09 06:33:40;;;;;;;5.78;4.03;;;;;;;;;;5047341;28;20197;-68
2022/06/09 06:36:06;;;;;;;5.53;4.10;;;;;;;;;;5045115;28;20166;-68
2022/06/09 06:38:32;;;;;;;4.88;4.40;;;;;;;;;;5044954;28;20173;-67
2022/06/09 06:40:58;;;;;;;5.22;4.35;;;;;;;;;;5041216;28;20157;-67
2022/06/09 06:43:24;;;;;;;3.83;3.30;;;;;;;;;;5034783;28;20505;-68
2022/06/09 06:45:51;;;;;;;4.20;3.80;;;;;;;;;;5034666;28;20624;-68
2022/06/09 06:48:17;;;;;;;4.05;3.53;;;;;;;;;;5035157;28;20187;-68
2022/06/09 06:50:43;;;;;;;3.70;3.17;;;;;;;;;;5034703;28;20161;-68
2022/06/09 06:53:12;;;;;;;3.75;3.35;;;;;;;;;;5034551;28;20219;-66
2022/06/09 06:55:38;;;;;;;3.65;3.35;;;;;;;;;;5034458;28;20276;-67
2022/06/09 06:58:04;;;;;;;3.47;3.20;;;;;;;;;;5034103;28;20195;-67
2022/06/09 07:00:30;;;;;;;3.80;3.00;;;;;;;;;;5034242;28;20165;-68
2022/06/09 07:02:56;;;;;;;3.53;3.10;;;;;;;;;;5034226;28;20179;-68
2022/06/09 07:05:22;;;;;;;3.38;3.05;;;;;;;;;;5034223;28;20256;-68
2022/06/09 07:07:49;;;;;;;3.00;2.70;;;;;;;;;;5033979;28;20708;-67
2022/06/09 07:10:16;;;;;;;4.53;2.75;;;;;;;;;;5034198;28;20188;-68
2022/06/09 07:12:42;;;;;;;2.90;2.60;;;;;;;;;;5034387;28;20200;-67
2022/06/09 07:15:09;;;;;;;3.20;2.75;;;;;;;;;;5034007;28;20172;-68
2022/06/09 07:17:35;;;;;;;3.30;3.00;;;;;;;;;;5034155;28;20165;-66
2022/06/09 07:20:02;;;;;;;4.18;2.97;;;;;;;;;;5033831;28;20235;-66
2022/06/09 07:22:28;;;;;;;3.58;2.83;;;;;;;;;;5033937;28;20491;-67
2022/06/09 07:24:55;;;;;;;4.07;2.75;;;;;;;;;;5033573;28;20267;-67
2022/06/09 07:27:22;;;;;;;3.05;2.80;;;;;;;;;;5034280;28;20496;-66
2022/06/09 07:29:48;;;;;;;3.50;2.92;;;;;;;;;;5034493;28;20169;-66
2022/06/09 07:32:14;;;;;;;3.65;3.13;;;;;;;;;;5041525;22;20224;-67
2022/06/09 07:34:40;;;;;;;3.60;3.30;;;;;;;;;;5034185;28;20185;-67
2022/06/09 07:37:06;;;;;;;3.70;3.03;;;;;;;;;;5034020;28;20615;-68
2022/06/09 07:39:33;;;;;;;3.67;2.90;;;;;;;;;;5033563;28;20173;-68
2022/06/09 07:41:59;;;;;;;3.25;2.47;;;;;;;;;;5033540;28;20185;-67
2022/06/09 07:44:25;;;;;;;2.58;2.38;;;;;;;;;;5033689;28;20173;-67
2022/06/09 07:46:51;;;;;;;2.30;2.10;;;;;;;;;;5033198;28;20593;-67
2022/06/09 07:49:17;;;;;;;4.38;2.70;;;;;;;;;;5033309;28;20200;-67
2022/06/09 07:51:43;;;;;;;2.60;2.40;;;;;;;;;;5033621;28;20184;-67
2022/06/09 07:54:09;;;;;;;3.92;2.33;;;;;;;;;;5033890;28;20185;-68
2022/06/09 07:56:35;;;;;;;2.67;2.20;;;;;;;;;;5033571;28;20202;-68
2022/06/09 07:59:02;;;;;;;2.30;2.10;;;;;;;;;;5033323;28;20265;-67
2022/06/09 08:01:28;;;;;;;2.25;1.92;;;;;;;;;;5033543;28;20244;-67
2022/06/09 08:03:54;;;;;;;2.45;2.15;;;;;;;;;;5033430;28;20196;-68
2022/06/09 08:06:22;;;;;;;3.75;2.40;;;;;;;;;;5033337;28;20165;-69
2022/06/09 08:08:48;;;;;;;4.82;2.45;;;;;;;;;;5033369;28;20632;-69
2022/06/09 08:11:14;;;;;;;3.67;2.60;;;;;;;;;;5033313;28;20169;-68
2022/06/09 08:13:40;;;;;;;2.72;2.30;;;;;;;;;;5033138;28;20243;-69
2022/06/09 08:16:06;;;;;;;2.17;1.90;;;;;;;;;;5033254;28;20161;-68
2022/06/09 08:18:33;;;;;;;3.90;1.85;;;;;;;;;;5032960;28;20173;-68
2022/06/09 08:20:59;;;;;;;1.80;1.70;;;;;;;;;;5033298;28;20169;-69
2022/06/09 08:23:26;;;;;;;1.98;1.85;;;;;;;;;;5033091;28;20161;-68
2022/06/09 08:25:56;;;;;;;2.75;2.33;;;;;;;;;;5033051;28;20605;-68
2022/06/09 08:28:23;;;;;;;3.47;2.10;;;;;;;;;;5033401;28;20226;-68
2022/06/09 08:30:51;;;;;;;2.30;2.10;;;;;;;;;;5032939;28;20625;-68
2022/06/09 08:33:17;;;;;;;2.63;2.10;;;;;;;;;;5032841;28;20209;-70
2022/06/09 08:35:44;;;;;;;2.58;2.38;;;;;;;;;;5034761;28;20165;-70
2022/06/09 08:38:10;;;;;;;2.80;2.38;;;;;;;;;;5037097;28;20244;-69
2022/06/09 08:40:36;;;;;;;3.60;2.50;;;;;;;;;;5036864;28;20193;-68
2022/06/09 08:43:11;;;;;;;2.47;2.28;;;;;;;;;;5036835;28;20258;-69
2022/06/09 08:45:40;;;;;;;3.17;2.65;;;;;;;;;;5036667;28;20271;-69
2022/06/09 08:48:07;;;;;;;3.30;3.00;;;;;;;;;;5036752;28;20172;-67
2022/06/09 08:50:34;;;;;;;3.15;2.67;;;;;;;;;;5036515;28;20165;-68
2022/06/09 08:53:04;;;;;;;3.60;3.05;;;;;;;;;;5036308;28;20258;-68
2022/06/09 08:55:36;;;;;;;3.20;2.90;;;;;;;;;;5036901;28;20208;-69
2022/06/09 08:58:12;;;;;;;3.78;3.30;;;;;;;;;;5036478;28;20177;-69
2022/06/09 09:00:40;;;;;;;4.00;3.60;;;;;;;;;;5036745;28;20156;-69
2022/06/09 09:03:12;;;;;;;3.60;3.17;;;;;;;;;;5036599;28;20263;-69
2022/06/09 09:05:44;;;;;;;4.40;3.40;;;;;;;;;;5036375;28;20157;-69
2022/06/09 09:08:10;;;;;;;4.20;3.60;;;;;;;;;;5036274;28;20266;-68
2022/06/09 09:10:51;;;;;;;4.13;3.83;;;;;;;;;;5036310;28;20664;-68
2022/06/09 09:13:17;;;;;;;5.78;4.18;;;;;;;;;;5036494;28;20188;-68
2022/06/09 09:15:46;;;;;;;6.30;4.20;;;;;;;;;;5036547;28;20259;-69
2022/06/09 09:18:19;;;;;;;4.72;4.10;;;;;;;;;;5036098;28;20507;-69
2022/06/09 09:21:03;;;;;;;5.80;4.85;;;;;;;;;;5036460;28;20491;-69
2022/06/09 09:23:37;;;;;;;5.07;4.57;;;;;;;;;;5035633;28;20188;-69
2022/06/09 09:26:06;;;;;;;5.03;3.97;;;;;;;;;;5036121;28;20163;-69
2022/06/09 09:28:38;;;;;;;4.97;4.22;;;;;;;;;;5035755;28;20263;-69
2022/06/09 09:31:07;;;;;;;5.13;4.68;;;;;;;;;;5036196;28;20166;-69
2022/06/09 09:33:34;;;;;;;6.65;4.40;;;;;;;;;;5035539;28;20211;-68
2022/06/09 09:36:07;;;;;;;5.25;4.25;;;;;;;;;;5035710;28;20609;-68
2022/06/09 09:38:43;;;;;;;4.97;4.30;;;;;;;;;;5036038;28;20173;-69
2022/06/09 09:41:24;;;;;;;4.20;3.80;;;;;;;;;;5035826;28;20631;-68
2022/06/09 09:43:50;;;;;;;5.95;4.40;;;;;;;;;;5035979;28;20248;-69
2022/06/09 09:46:23;;;;;;;6.07;4.72;;;;;;;;;;5035451;28;20176;-69
2022/06/09 09:48:49;;;;;;;5.88;4.38;;;;;;;;;;5035620;28;20304;-68
2022/06/09 09:51:15;;;;;;;5.05;4.45;;;;;;;;;;5035735;28;20556;-68
2022/06/09 09:53:47;;;;;;;4.50;4.07;;;;;;;;;;5035339;28;20219;-68
2022/06/09 09:56:19;;;;;;;4.10;3.75;;;;;;;;;;5035529;28;20173;-68
2022/06/09 09:58:48;;;;;;;6.03;4.57;;;;;;;;;;5035838;28;20165;-69
2022/06/09 10:01:17;;;;;;;4.68;4.28;;;;;;;;;;5035424;28;20161;-69
2022/06/09 10:09:32;;;;;;;6.40;5.25;;;;;;;;;;5035575;28;20249;-68
2022/06/09 10:11:59;;;;;;;5.30;4.25;;;;;;;;;;5035443;28;20547;-68
2022/06/09 10:14:32;;;;;;;5.72;4.80;;;;;;;;;;5035040;28;20379;-69
2022/06/09 10:16:58;;;;;;;5.07;4.15;;;;;;;;;;5035076;28;20161;-69
2022/06/09 10:19:26;;;;;;;5.05;4.07;;;;;;;;;;5034988;28;20180;-69
2022/06/09 10:21:58;;;;;;;4.82;3.88;;;;;;;;;;5034827;28;20256;-69
2022/06/09 10:24:27;;;;;;;5.43;4.63;;;;;;;;;;5034754;28;20165;-70
2022/06/09 10:26:56;;;;;;;4.13;3.63;;;;;;;;;;5035232;28;20667;-68
2022/06/09 10:29:27;;;;;;;5.00;4.60;;;;;;;;;;5034857;28;20268;-68
2022/06/09 10:32:05;;;;;;;7.20;4.25;;;;;;;;;;5034671;28;20157;-69
2022/06/09 10:34:33;;;;;;;4.07;3.72;;;;;;;;;;5034781;28;20251;-69
2022/06/09 10:37:19;;;;;;;5.10;4.32;;;;;;;;;;5034854;28;20180;-68
2022/06/09 10:39:53;;;;;;;5.30;4.32;;;;;;;;;;5034857;28;20268;-68
2022/06/09 10:42:34;;;;;;;3.78;3.40;;;;;;;;;;5034947;28;20589;-68
2022/06/09 10:45:11;;;;;;;5.25;3.80;;;;;;;;;;5036650;28;20230;-68
2022/06/09 10:56:49;;;;;;;3.08;2.83;;;;;;;;;;5034581;28;20157;-68
2022/06/09 10:59:19;;;;;;;5.72;3.85;;;;;;;;;;5033398;28;20173;-68
2022/06/09 11:01:45;;;;;;;5.60;3.80;;;;;;;;;;5034459;28;20157;-68
2022/06/09 11:04:15;;;;;;;4.93;4.53;;;;;;;;;;5034018;28;20169;-68
2022/06/09 11:07:00;;;;;;;6.65;4.82;;;;;;;;;;5034100;28;20169;-68
2022/06/09 11:09:26;;;;;;;5.03;4.38;;;;;;;;;;5034275;28;20231;-68
2022/06/09 11:11:59;;;;;;;6.28;4.40;;;;;;;;;;5033912;28;20601;-68
2022/06/09 11:14:37;;;;;;;5.45;4.30;;;;;;;;;;5033710;28;20597;-68
2022/06/09 11:17:19;;;;;;;6.30;3.88;;;;;;;;;;5033937;28;20535;-68
2022/06/09 11:19:54;;;;;;;3.90;3.35;;;;;;;;;;5033989;28;20150;-68
2022/06/09 11:22:39;;;;;;;4.28;3.47;;;;;;;;;;5033611;28;20157;-69
2022/06/09 11:25:23;;;;;;;4.78;3.67;;;;;;;;;;5033560;28;20596;-68
2022/06/09 11:27:57;;;;;;;3.72;3.42;;;;;;;;;;5033868;28;20234;-68
2022/06/09 11:30:28;;;;;;;5.18;4.03;;;;;;;;;;5033717;28;20229;-68
2022/06/09 11:33:13;;;;;;;6.20;4.20;;;;;;;;;;5033729;28;20208;-67
2022/06/09 11:35:54;;;;;;;4.45;3.80;;;;;;;;;;5033650;28;20214;-67
2022/06/09 11:38:38;;;;;;;3.92;3.53;;;;;;;;;;5041346;22;20224;-67
2022/06/09 11:41:14;;;;;;;4.13;3.15;;;;;;;;;;5033474;28;20187;-67
2022/06/09 11:44:06;;;;;;;4.40;3.80;;;;;;;;;;5040850;23;20227;-68
2022/06/09 11:46:34;;;;;;;3.95;3.40;;;;;;;;;;4972619;28;20492;-68
2022/06/09 11:49:04;;;;;;;3.00;2.75;;;;;;;;;;4972677;28;20183;-68
2022/06/09 11:51:31;;;;;;;4.07;2.92;;;;;;;;;;5016142;22;20227;-68
2022/06/09 11:54:00;;;;;;;3.28;2.88;;;;;;;;;;5048463;22;20320;-68
2022/06/09 11:56:36;;;;;;;4.43;3.15;;;;;;;;;;5033153;28;20577;-68
2022/06/09 11:59:05;;;;;;;3.85;2.75;;;;;;;;;;5033779;28;20222;-67
2022/06/09 12:01:31;;;;;;;4.10;3.13;;;;;;;;;;5033175;28;20197;-67
2022/06/09 12:04:05;;;;;;;2.80;2.60;;;;;;;;;;5033323;28;20204;-67
2022/06/09 12:06:52;;;;;;;2.85;2.65;;;;;;;;;;5033297;28;20156;-67
2022/06/09 12:09:27;;;;;;;3.05;2.78;;;;;;;;;;5034574;28;20157;-67
2022/06/09 12:11:58;;;;;;;2.58;2.38;;;;;;;;;;5044919;22;20301;-68
2022/06/09 12:14:27;;;;;;;2.28;2.08;;;;;;;;;;5037657;28;20427;-68
2022/06/09 12:16:56;;;;;;;2.88;2.35;;;;;;;;;;5037486;28;20158;-67
2022/06/09 12:19:24;;;;;;;2.50;2.30;;;;;;;;;;5037373;28;20164;-67
2022/06/09 12:21:55;;;;;;;2.35;2.15;;;;;;;;;;5037534;28;20555;-68
2022/06/09 12:24:26;;;;;;;2.20;2.00;;;;;;;;;;5037799;28;20538;-68
2022/06/09 12:26:57;;;;;;;2.40;2.20;;;;;;;;;;5037387;28;20165;-68
2022/06/09 12:29:35;;;;;;;2.38;2.17;;;;;;;;;;5037294;28;20173;-68
2022/06/09 12:32:08;;;;;;;2.80;2.60;;;;;;;;;;5037293;28;20295;-68
2022/06/09 12:34:37;;;;;;;2.10;2.00;;;;;;;;;;5037101;28;20711;-68
2022/06/09 12:37:03;;;;;;;3.38;2.20;;;;;;;;;;5037179;28;20200;-68
2022/06/09 12:39:34;;;;;;;2.55;2.35;;;;;;;;;;5037066;28;20161;-68
2022/06/09 12:42:06;;;;;;;2.60;2.40;;;;;;;;;;5037221;28;20605;-68
2022/06/09 12:44:37;;;;;;;2.25;1.92;;;;;;;;;;5036995;28;20157;-68
2022/06/09 12:47:15;;;;;;;2.70;2.40;;;;;;;;;;5036571;28;20232;-68
2022/06/09 12:49:42;;;;;;;2.60;2.40;;;;;;;;;;5037003;28;20177;-68
2022/06/09 12:52:20;;;;;;;2.85;2.47;;;;;;;;;;5036751;28;20631;-69
2022/06/09 12:54:48;;;;;;;2.72;2.53;;;;;;;;;;5035647;28;20208;-68
2022/06/09 12:57:20;;;;;;;2.90;2.70;;;;;;;;;;5036791;28;20173;-68
2022/06/09 12:59:46;;;;;;;2.60;2.10;;;;;;;;;;5036667;28;20169;-68
2022/06/09 13:02:12;;;;;;;2.88;2.60;;;;;;;;;;5036756;28;20639;-68
2022/06/09 13:04:50;;;;;;;2.33;2.22;;;;;;;;;;5036645;28;20168;-68
2022/06/09 13:07:22;;;;;;;2.60;2.40;;;;;;;;;;5036887;28;20165;-68
2022/06/09 13:09:59;;;;;;;3.28;2.65;;;;;;;;;;5037404;28;20165;-69
2022/06/09 13:15:25;;;;;;;2.50;2.30;;;;;;;;;;5039162;28;20168;-68
2022/06/09 13:17:51;;;;;;;2.72;2.53;;;;;;;;;;5039086;28;20179;-68
2022/06/09 13:20:20;;;;;;;2.60;2.42;;;;;;;;;;5039149;28;20589;-68
2022/06/09 13:22:46;;;;;;;2.88;2.13;;;;;;;;;;5040532;28;20247;-68
2022/06/09 13:25:18;;;;;;;1.80;1.70;;;;;;;;;;5039816;28;20165;-68
2022/06/09 13:27:48;;;;;;;1.70;1.58;;;;;;;;;;5041973;28;20529;-68
2022/06/09 13:30:17;;;;;;;1.90;1.80;;;;;;;;;;5044250;28;20227;-68
2022/06/09 13:32:52;;;;;;;1.75;1.65;;;;;;;;;;5041680;28;20192;-68
2022/06/09 13:35:24;;;;;;;2.17;1.73;;;;;;;;;;5041959;28;20157;-68
2022/06/09 13:38:00;;;;;;;2.10;1.90;;;;;;;;;;5041654;28;20230;-68
2022/06/09 13:40:26;;;;;;;2.00;1.85;;;;;;;;;;5037287;28;20168;-68
2022/06/09 13:42:57;;;;;;;1.80;1.63;;;;;;;;;;5035995;28;20252;-68
2022/06/09 13:45:26;;;;;;;2.42;1.98;;;;;;;;;;5035577;28;20165;-68
2022/06/09 13:48:12;;;;;;;2.03;1.92;;;;;;;;;;5035573;28;20169;-68
2022/06/09 13:50:40;;;;;;;2.03;1.92;;;;;;;;;;5035426;28;20224;-68
2022/06/09 13:53:22;;;;;;;2.22;2.00;;;;;;;;;;5035444;28;20737;-68
2022/06/09 13:55:48;;;;;;;2.30;1.98;;;;;;;;;;5035986;28;20173;-68
2022/06/09 13:58:14;;;;;;;1.85;1.75;;;;;;;;;;5035294;28;20157;-68
2022/06/09 14:00:43;;;;;;;1.70;1.60;;;;;;;;;;5035151;28;20300;-68
2022/06/09 14:03:17;;;;;;;1.52;1.42;;;;;;;;;;5035197;28;20199;-68
2022/06/09 14:05:48;;;;;;;1.50;1.40;;;;;;;;;;5035098;28;20627;-68
2022/06/09 14:08:14;;;;;;;2.40;2.20;;;;;;;;;;5035436;28;20180;-68
2022/06/09 14:10:40;;;;;;;4.38;1.90;;;;;;;;;;5034960;28;20623;-68
2022/06/09 14:13:07;;;;;;;2.10;2.00;;;;;;;;;;5034746;28;20207;-68
2022/06/09 14:15:34;;;;;;;2.08;1.77;;;;;;;;;;5035045;28;20173;-68
2022/06/09 14:18:00;;;;;;;2.17;1.13;;;;;;;;;;5035150;28;20165;-68
2022/06/09 14:20:31;;;;;;;2.00;1.00;;;;;;;;;;5035044;28;20515;-68
2022/06/09 14:22:57;;;;;;;1.25;1.15;;;;;;;;;;5034901;28;20161;-68
2022/06/09 14:25:24;;;;;;;1.20;1.10;;;;;;;;;;5035071;28;20530;-68
2022/06/09 14:27:50;;;;;;;1.10;1.10;;;;;;;;;;5034855;28;20164;-68
2022/06/09 14:30:18;;;;;;;1.75;1.60;;;;;;;;;;5035114;28;20173;-68
2022/06/09 14:32:44;;;;;;;1.42;1.33;;;;;;;;;;5033622;28;20252;-68
2022/06/09 14:35:16;;;;;;;2.47;1.23;;;;;;;;;;5035019;28;20199;-68
2022/06/09 14:37:43;;;;;;;1.50;1.40;;;;;;;;;;5034835;28;20145;-68
2022/06/09 14:40:37;;;;;;;1.80;1.45;;;;;;;;;;5034712;28;20164;-68
2022/06/09 14:43:04;;;;;;;2.00;1.80;;;;;;;;;;5032047;28;20268;-69
2022/06/09 14:45:30;;;;;;;1.27;1.17;;;;;;;;;;5034584;28;20690;-68
2022/06/09 14:47:56;;;;;;;1.90;1.50;;;;;;;;;;5034381;28;20200;-68
2022/06/09 14:50:24;;;;;;;2.22;1.95;;;;;;;;;;5034457;28;20269;-68
2022/06/09 14:52:50;;;;;;;2.08;1.90;;;;;;;;;;5034270;28;20196;-68
2022/06/09 14:55:16;;;;;;;1.60;1.50;;;;;;;;;;5034277;28;20167;-68
2022/06/09 14:57:43;;;;;;;1.90;1.63;;;;;;;;;;5034106;28;20171;-68
2022/06/09 15:00:15;;;;;;;1.23;1.13;;;;;;;;;;5034384;28;20161;-68
2022/06/09 15:02:41;;;;;;;1.50;1.40;;;;;;;;;;5033100;28;20161;-68
2022/06/09 15:05:08;;;;;;;2.08;1.60;;;;;;;;;;5034077;28;20594;-68
2022/06/09 15:07:34;;;;;;;3.55;1.80;;;;;;;;;;5034502;28;20181;-68